Time;durP1;ratioP1;P1;durP2;ratioP2;P2;SDS_P1;SDS_P2;PMS_P1;PMS_P2;Temp;Humidity;BMP_temperature;BMP_pressure;BME280_temperature;BME280_humidity;BME280_pressure;Samples;Min_cycle;Max_cycle;Signal;HPM_P1;HPM_P2
2023/11/30 00:01:56;;;;;;;;;;;;;;;16.22;45.88;100701.56;4990050;28;1216;-56
2023/11/30 00:04:22;;;;;;;;;;;;;;;17.68;45.53;100685.34;4992723;28;1065;-56
2023/11/30 00:06:47;;;;;;;;;;;;;;;16.74;46.31;100694.97;4989532;28;1124;-53
2023/11/30 00:09:13;;;;;;;;;;;;;;;16.38;46.19;100696.91;4992538;28;1097;-55
2023/11/30 00:11:38;;;;;;;;;;;;;;;17.22;46.14;100693.78;4980362;28;1174;-55
2023/11/30 00:14:04;;;;;;;;;;;;;;;16.58;46.29;100701.59;4996532;28;1970;-56
2023/11/30 00:16:29;;;;;;;;;;;;;;;16.38;45.64;100703.25;4998922;28;1096;-56
2023/11/30 00:18:55;;;;;;;;;;;;;;;16.91;46.27;100704.84;4995972;28;1138;-54
2023/11/30 00:21:20;;;;;;;;;;;;;;;16.90;46.57;100714.19;4989845;28;1017;-54
2023/11/30 00:23:46;;;;;;;;;;;;;;;16.42;45.92;100709.81;4986404;28;1246;-52
2023/11/30 00:26:13;;;;;;;;;;;;;;;16.22;45.29;100713.34;4981464;28;1168;-55
2023/11/30 00:28:41;;;;;;;;;;;;;;;17.34;45.61;100713.53;4988851;28;1076;-55
2023/11/30 00:31:07;;;;;;;;;;;;;;;16.53;46.44;100723.53;4988202;28;1072;-53
2023/11/30 00:33:33;;;;;;;;;;;;;;;16.30;45.90;100717.50;4983241;28;1902;-55
2023/11/30 00:35:58;;;;;;;;;;;;;;;16.75;46.33;100718.59;4998286;28;875;-52
2023/11/30 00:38:24;;;;;;;;;;;;;;;16.83;46.45;100724.59;4985628;28;1118;-55
2023/11/30 00:40:49;;;;;;;;;;;;;;;16.32;46.27;100731.75;4989500;28;1120;-55
2023/11/30 00:43:15;;;;;;;;;;;;;;;17.68;45.24;100723.84;4993830;28;1211;-55
2023/11/30 00:45:40;;;;;;;;;;;;;;;16.68;46.55;100729.03;4989165;28;1223;-55
2023/11/30 00:48:06;;;;;;;;;;;;;;;16.43;45.79;100736.16;5001297;28;1548;-55
2023/11/30 00:50:31;;;;;;;;;;;;;;;16.88;46.43;100746.59;4998452;28;1123;-56
2023/11/30 00:52:57;;;;;;;;;;;;;;;17.10;46.38;100757.31;4995128;28;1910;-55
2023/11/30 00:55:22;;;;;;;;;;;;;;;16.49;46.43;100752.63;4998596;28;1083;-55
2023/11/30 00:57:49;;;;;;;;;;;;;;;17.28;46.13;100755.91;4998083;28;1057;-58
2023/11/30 01:00:14;;;;;;;;;;;;;;;16.67;46.71;100765.00;4995597;28;859;-56
2023/11/30 01:02:40;;;;;;;;;;;;;;;17.35;46.03;100772.91;4984216;28;1593;-55
2023/11/30 01:05:06;;;;;;;;;;;;;;;17.58;45.50;100776.94;4989173;28;1432;-56
2023/11/30 01:07:32;;;;;;;;;;;;;;;16.80;46.28;100774.59;5006434;28;1480;-55
2023/11/30 01:09:57;;;;;;;;;;;;;;;16.54;45.68;100789.13;4979073;28;1107;-53
2023/11/30 01:12:26;;;;;;;;;;;;;;;17.23;46.10;100783.38;4999179;28;1965;-54
2023/11/30 01:14:52;;;;;;;;;;;;;;;16.69;46.33;100802.06;4989603;28;1250;-54
2023/11/30 01:17:18;;;;;;;;;;;;;;;16.39;45.80;100792.69;4992899;28;1112;-56
2023/11/30 01:19:43;;;;;;;;;;;;;;;17.06;46.26;100787.25;4997580;28;1072;-56
2023/11/30 01:22:09;;;;;;;;;;;;;;;16.90;46.22;100796.59;4993673;28;1138;-55
2023/11/30 01:24:35;;;;;;;;;;;;;;;16.43;46.35;100791.03;4991018;28;870;-55
2023/11/30 01:27:00;;;;;;;;;;;;;;;16.41;45.54;100790.50;4994782;28;1063;-56
2023/11/30 01:29:26;;;;;;;;;;;;;;;17.14;46.00;100796.88;4988105;28;1111;-57
2023/11/30 01:31:51;;;;;;;;;;;;;;;16.56;46.24;100806.19;4993641;28;1218;-56
2023/11/30 01:34:17;;;;;;;;;;;;;;;16.31;46.24;100806.94;4986523;28;1985;-56
2023/11/30 01:36:43;;;;;;;;;;;;;;;17.07;46.17;100801.81;5000902;28;1291;-56
2023/11/30 01:39:09;;;;;;;;;;;;;;;16.48;46.60;100811.34;4988433;28;1095;-56
2023/11/30 01:41:37;;;;;;;;;;;;;;;16.29;45.43;100814.63;4991044;28;1068;-55
2023/11/30 01:44:03;;;;;;;;;;;;;;;16.49;45.85;100813.84;4987359;28;1120;-55
2023/11/30 01:46:29;;;;;;;;;;;;;;;17.34;45.96;100815.22;4984738;28;1159;-55
2023/11/30 01:48:54;;;;;;;;;;;;;;;16.60;46.57;100811.94;4982809;28;1032;-53
2023/11/30 01:51:20;;;;;;;;;;;;;;;16.37;45.55;100821.50;4990962;28;1122;-54
2023/11/30 01:53:45;;;;;;;;;;;;;;;16.24;45.56;100814.59;4986564;28;1984;-54
2023/11/30 01:56:11;;;;;;;;;;;;;;;17.42;45.77;100817.41;4995919;28;1215;-55
2023/11/30 01:58:36;;;;;;;;;;;;;;;16.53;46.54;100831.41;4995887;28;1164;-54
2023/11/30 02:01:02;;;;;;;;;;;;;;;16.30;46.18;100816.28;4984492;28;1093;-54
2023/11/30 02:03:27;;;;;;;;;;;;;;;17.74;45.32;100821.72;4979854;28;1163;-54
2023/11/30 02:05:53;;;;;;;;;;;;;;;16.62;46.59;100828.97;4983363;28;1152;-52
2023/11/30 02:08:18;;;;;;;;;;;;;;;16.47;45.87;100827.00;4997288;28;1057;-56
2023/11/30 02:10:44;;;;;;;;;;;;;;;16.92;46.33;100833.66;4995535;28;1908;-55
2023/11/30 02:13:09;;;;;;;;;;;;;;;16.89;46.56;100833.41;4986170;28;1911;-53
2023/11/30 02:15:35;;;;;;;;;;;;;;;16.39;46.02;100830.28;4992313;28;1576;-52
2023/11/30 02:18:00;;;;;;;;;;;;;;;16.37;45.65;100843.47;4995595;28;1124;-53
2023/11/30 02:20:26;;;;;;;;;;;;;;;17.29;45.71;100837.22;4992279;28;1552;-55
2023/11/30 02:22:52;;;;;;;;;;;;;;;16.54;46.52;100837.75;4977677;28;1663;-55
2023/11/30 02:25:17;;;;;;;;;;;;;;;17.34;46.02;100836.41;4989644;28;1021;-55
2023/11/30 02:27:43;;;;;;;;;;;;;;;17.07;46.37;100846.59;4995653;28;1250;-55
2023/11/30 02:30:08;;;;;;;;;;;;;;;16.58;46.19;100844.34;4982870;28;1596;-54
2023/11/30 02:32:34;;;;;;;;;;;;;;;16.36;45.35;100841.81;4986839;28;1971;-55
2023/11/30 02:35:00;;;;;;;;;;;;;;;17.33;45.84;100841.06;4991831;28;1332;-54
2023/11/30 02:37:25;;;;;;;;;;;;;;;16.56;46.72;100854.75;4997206;28;1098;-54
2023/11/30 02:39:51;;;;;;;;;;;;;;;17.89;45.11;100855.78;4988591;28;1196;-55
2023/11/30 02:42:16;;;;;;;;;;;;;;;17.67;45.49;100853.38;4996865;28;1068;-56
2023/11/30 02:44:42;;;;;;;;;;;;;;;16.91;46.12;100858.66;4993663;28;1103;-56
2023/11/30 02:47:07;;;;;;;;;;;;;;;16.68;45.56;100860.00;4978251;28;1068;-55
2023/11/30 02:49:33;;;;;;;;;;;;;;;16.45;44.71;100858.56;4982782;28;1002;-56
2023/11/30 02:51:59;;;;;;;;;;;;;;;17.04;45.94;100860.03;5000870;28;1037;-54
2023/11/30 02:54:25;;;;;;;;;;;;;;;17.18;46.03;100874.06;5000517;28;1972;-55
2023/11/30 02:56:50;;;;;;;;;;;;;;;16.66;45.93;100879.50;5000728;28;1110;-55
2023/11/30 02:59:16;;;;;;;;;;;;;;;16.40;45.07;100884.91;5000571;28;1119;-55
2023/11/30 03:01:42;;;;;;;;;;;;;;;16.68;45.80;100881.97;4983057;28;1429;-55
2023/11/30 03:04:07;;;;;;;;;;;;;;;17.12;45.92;100892.47;4982586;28;1064;-55
2023/11/30 03:06:33;;;;;;;;;;;;;;;16.53;46.05;100893.72;4991318;28;1171;-54
2023/11/30 03:08:58;;;;;;;;;;;;;;;16.31;45.42;100897.47;4982229;28;1044;-56
2023/11/30 03:11:24;;;;;;;;;;;;;;;16.71;45.76;100892.41;4992268;28;1148;-55
2023/11/30 03:13:49;;;;;;;;;;;;;;;17.03;45.99;100892.19;4995394;28;1967;-53
2023/11/30 03:16:21;;;;;;;;;;;;;;;16.46;46.08;100901.41;4988665;28;1052;-51
2023/11/30 03:18:47;;;;;;;;;;;;;;;16.32;45.59;100903.81;4986163;28;1631;-56
2023/11/30 03:21:16;;;;;;;;;;;;;;;17.22;45.76;100908.13;5000180;28;1028;-57
2023/11/30 03:23:42;;;;;;;;;;;;;;;16.49;46.06;100914.56;4987475;28;1183;-55
2023/11/30 03:26:08;;;;;;;;;;;;;;;16.50;46.27;100918.97;4982303;28;818;-56
2023/11/30 03:28:33;;;;;;;;;;;;;;;17.33;45.33;100919.97;4993717;28;1088;-57
2023/11/30 03:30:59;;;;;;;;;;;;;;;16.50;46.32;100916.22;4989796;28;1064;-57
2023/11/30 03:33:25;;;;;;;;;;;;;;;16.39;45.32;100916.19;4999699;28;1989;-55
2023/11/30 03:35:51;;;;;;;;;;;;;;;17.66;44.97;100913.06;4990583;28;1134;-56
2023/11/30 03:38:20;;;;;;;;;;;;;;;16.78;45.93;100917.69;4985392;28;1020;-57
2023/11/30 03:40:47;;;;;;;;;;;;;;;16.34;45.96;100918.94;4989823;28;1196;-54
2023/11/30 03:43:12;;;;;;;;;;;;;;;17.23;45.87;100918.03;4995780;28;1034;-53
2023/11/30 03:45:38;;;;;;;;;;;;;;;16.81;46.07;100919.06;4989183;28;1170;-57
2023/11/30 03:48:03;;;;;;;;;;;;;;;16.36;46.05;100924.13;4977182;28;1597;-56
2023/11/30 03:50:30;;;;;;;;;;;;;;;17.26;45.76;100925.72;4990745;28;1351;-57
2023/11/30 03:52:55;;;;;;;;;;;;;;;16.82;46.27;100920.72;4980194;28;1902;-57
2023/11/30 03:55:21;;;;;;;;;;;;;;;16.46;45.74;100923.34;4979243;28;1022;-51
2023/11/30 03:57:47;;;;;;;;;;;;;;;16.25;45.19;100928.75;4984271;28;1158;-55
2023/11/30 04:00:14;;;;;;;;;;;;;;;17.02;45.66;100929.00;4987253;28;1117;-53
2023/11/30 04:02:39;;;;;;;;;;;;;;;16.77;46.42;100937.97;4988001;28;933;-56
2023/11/30 04:05:05;;;;;;;;;;;;;;;16.38;45.84;100947.47;4985354;28;1234;-55
2023/11/30 04:07:31;;;;;;;;;;;;;;;17.34;45.37;100951.84;4991078;28;1448;-55
2023/11/30 04:09:57;;;;;;;;;;;;;;;16.62;46.18;100949.78;5008552;28;1116;-56
2023/11/30 04:12:23;;;;;;;;;;;;;;;16.94;46.04;100951.50;4997746;28;1947;-55
2023/11/30 04:14:49;;;;;;;;;;;;;;;17.37;45.18;100954.03;4991721;28;1320;-57
2023/11/30 04:17:14;;;;;;;;;;;;;;;16.65;45.70;100943.72;4986883;28;1021;-58
2023/11/30 04:19:41;;;;;;;;;;;;;;;16.33;45.40;100941.97;4998704;28;1130;-65
2023/11/30 04:22:07;;;;;;;;;;;;;;;16.83;45.90;100950.66;4974451;28;1578;-61
2023/11/30 04:24:32;;;;;;;;;;;;;;;17.07;45.55;100956.50;4992683;28;819;-60
2023/11/30 04:26:58;;;;;;;;;;;;;;;16.50;45.57;100957.41;4991441;28;1515;-61
2023/11/30 04:29:23;;;;;;;;;;;;;;;16.50;45.89;100957.41;4998946;28;1036;-62
2023/11/30 04:31:49;;;;;;;;;;;;;;;17.12;45.53;100963.91;4999283;28;1200;-62
2023/11/30 04:34:14;;;;;;;;;;;;;;;16.45;45.78;100973.84;4998500;28;1910;-62
2023/11/30 04:36:40;;;;;;;;;;;;;;;16.26;45.47;100963.34;4991172;28;1191;-62
2023/11/30 04:39:06;;;;;;;;;;;;;;;17.71;44.59;100967.22;4994386;28;1586;-59
2023/11/30 04:41:31;;;;;;;;;;;;;;;16.74;45.68;100955.00;5009204;28;1220;-61
2023/11/30 04:43:57;;;;;;;;;;;;;;;16.35;45.74;100953.47;4990355;28;1131;-58
2023/11/30 04:46:22;;;;;;;;;;;;;;;16.40;46.09;100958.19;4992592;28;1147;-59
2023/11/30 04:48:48;;;;;;;;;;;;;;;17.19;45.49;100963.66;4997171;28;1374;-59
2023/11/30 04:51:14;;;;;;;;;;;;;;;16.50;45.91;100969.19;4984036;28;1223;-57
2023/11/30 04:53:39;;;;;;;;;;;;;;;16.23;45.11;100969.38;4989805;28;1964;-59
2023/11/30 04:56:05;;;;;;;;;;;;;;;17.24;45.36;100978.22;4991828;28;1093;-59
2023/11/30 04:58:31;;;;;;;;;;;;;;;16.72;45.95;100999.22;4987175;28;1149;-59
2023/11/30 05:00:56;;;;;;;;;;;;;;;16.30;45.49;100991.06;4983977;28;1310;-58
2023/11/30 05:03:22;;;;;;;;;;;;;;;16.12;45.20;101000.56;4998255;28;1051;-59
2023/11/30 05:05:47;;;;;;;;;;;;;;;16.20;44.59;101000.91;4984872;28;1155;-59
2023/11/30 05:08:13;;;;;;;;;;;;;;;16.99;45.54;101011.97;4990519;28;1192;-61
2023/11/30 05:10:38;;;;;;;;;;;;;;;16.28;45.91;101010.53;4991661;28;1109;-61
2023/11/30 05:13:03;;;;;;;;;;;;;;;17.18;45.57;101030.69;4984210;28;1902;-59
2023/11/30 05:15:30;;;;;;;;;;;;;;;16.65;45.87;101031.59;4980079;28;1170;-58
2023/11/30 05:17:56;;;;;;;;;;;;;;;16.39;45.76;101049.84;4989765;28;1164;-58
2023/11/30 05:20:22;;;;;;;;;;;;;;;16.13;45.07;101057.91;4980234;28;1112;-58
2023/11/30 05:22:47;;;;;;;;;;;;;;;16.25;45.56;101055.78;4997703;28;1009;-59
2023/11/30 05:25:13;;;;;;;;;;;;;;;16.75;45.90;101056.34;4994299;28;1055;-58
2023/11/30 05:27:38;;;;;;;;;;;;;;;16.21;46.46;101064.81;4974172;28;938;-59
2023/11/30 05:30:04;;;;;;;;;;;;;;;16.99;45.10;101066.91;4995529;28;1091;-56
2023/11/30 05:32:29;;;;;;;;;;;;;;;16.49;46.32;101068.28;4985175;28;1915;-58
2023/11/30 05:34:55;;;;;;;;;;;;;;;16.16;46.87;101067.53;4997513;28;1059;-58
2023/11/30 05:37:21;;;;;;;;;;;;;;;17.33;44.36;101077.44;4981955;28;926;-57
2023/11/30 05:39:46;;;;;;;;;;;;;;;16.56;45.66;101088.09;4995783;28;1079;-59
2023/11/30 05:42:12;;;;;;;;;;;;;;;16.15;46.94;101091.41;4984866;28;1231;-59
2023/11/30 05:44:37;;;;;;;;;;;;;;;17.22;44.37;101106.00;4991958;28;2851;-59
2023/11/30 05:47:03;;;;;;;;;;;;;;;16.89;45.18;101110.81;4997022;28;1035;-59
2023/11/30 05:49:28;;;;;;;;;;;;;;;16.33;46.28;101106.63;4996453;28;1055;-57
2023/11/30 05:51:54;;;;;;;;;;;;;;;16.05;46.96;101111.34;4989651;28;1020;-58
2023/11/30 05:54:19;;;;;;;;;;;;;;;17.42;44.17;101114.31;4991221;28;1946;-57
2023/11/30 05:56:45;;;;;;;;;;;;;;;16.77;45.40;101117.34;4996787;28;1095;-57
2023/11/30 05:59:12;;;;;;;;;;;;;;;16.22;46.55;101119.44;4996273;28;1041;-59
2023/11/30 06:01:37;;;;;;;;;;;;;;;15.97;47.04;101113.75;4993145;28;1112;-59
2023/11/30 06:04:03;;;;;;;;;;;;;;;16.97;45.08;101113.06;4983673;28;1124;-58
2023/11/30 06:06:29;;;;;;;;;;;;;;;16.96;44.84;101119.66;4996262;28;1008;-56
2023/11/30 06:08:54;;;;;;;;;;;;;;;16.32;46.32;101117.88;4983780;28;1146;-59
2023/11/30 06:11:20;;;;;;;;;;;;;;;17.17;44.58;101119.75;4988911;28;1139;-59
2023/11/30 06:13:45;;;;;;;;;;;;;;;17.18;44.31;101129.63;4982304;28;1930;-57
2023/11/30 06:16:11;;;;;;;;;;;;;;;16.53;45.79;101132.56;4985064;28;1049;-58
2023/11/30 06:18:37;;;;;;;;;;;;;;;16.16;46.64;101138.84;4983586;28;1091;-58
2023/11/30 06:21:02;;;;;;;;;;;;;;;17.52;43.67;101145.69;4996183;28;1009;-55
2023/11/30 06:23:28;;;;;;;;;;;;;;;16.73;45.48;101153.81;4995439;28;1029;-56
2023/11/30 06:25:55;;;;;;;;;;;;;;;16.80;45.47;101148.09;4991751;28;999;-57
2023/11/30 06:28:21;;;;;;;;;;;;;;;17.51;43.78;101144.03;4977954;28;1113;-56
2023/11/30 06:30:47;;;;;;;;;;;;;;;16.57;45.87;101147.41;5011541;28;1153;-57
2023/11/30 06:33:12;;;;;;;;;;;;;;;16.47;46.34;101164.63;4995813;28;1981;-55
2023/11/30 06:35:38;;;;;;;;;;;;;;;17.75;43.05;101158.09;4996199;28;1029;-56
2023/11/30 06:38:03;;;;;;;;;;;;;;;16.72;45.53;101165.91;4989829;28;1052;-56
2023/11/30 06:40:29;;;;;;;;;;;;;;;17.20;44.48;101161.22;4989662;28;1151;-57
2023/11/30 06:42:54;;;;;;;;;;;;;;;17.35;44.01;101170.63;4985271;28;2403;-59
2023/11/30 06:45:20;;;;;;;;;;;;;;;16.55;45.98;101175.13;4983856;28;1064;-58
2023/11/30 06:47:46;;;;;;;;;;;;;;;16.18;46.89;101186.88;4996466;28;1138;-57
2023/11/30 06:50:11;;;;;;;;;;;;;;;17.00;45.23;101185.84;4990149;28;1091;-56
2023/11/30 06:52:37;;;;;;;;;;;;;;;17.36;43.99;101178.63;4989368;28;1902;-58
2023/11/30 06:55:03;;;;;;;;;;;;;;;16.49;46.15;101180.84;4989233;28;1200;-59
2023/11/30 06:57:29;;;;;;;;;;;;;;;16.18;46.93;101180.59;4976950;28;1083;-58
2023/11/30 06:59:54;;;;;;;;;;;;;;;17.67;43.66;101189.72;4988962;28;1116;-59
2023/11/30 07:02:21;;;;;;;;;;;;;;;16.88;45.29;101184.13;4989479;28;1083;-57
2023/11/30 07:04:47;;;;;;;;;;;;;;;16.29;46.59;101179.59;4980001;28;1116;-58
2023/11/30 07:07:12;;;;;;;;;;;;;;;17.19;44.85;101172.50;4986037;28;1001;-59
2023/11/30 07:09:38;;;;;;;;;;;;;;;17.04;44.80;101138.38;4995876;28;1135;-58
2023/11/30 07:12:03;;;;;;;;;;;;;;;16.36;46.68;101143.69;4995779;28;996;-58
2023/11/30 07:14:29;;;;;;;;;;;;;;;16.52;46.33;101139.13;4990861;28;2713;-59
2023/11/30 07:16:54;;;;;;;;;;;;;;;17.54;43.75;101130.53;4995990;28;1033;-59
2023/11/30 07:19:20;;;;;;;;;;;;;;;16.58;46.07;101118.88;4995435;28;1116;-60
2023/11/30 07:21:45;;;;;;;;;;;;;;;16.40;46.38;101134.66;4995574;28;1052;-60
2023/11/30 07:24:11;;;;;;;;;;;;;;;17.73;43.38;101130.88;4991635;28;1438;-59
2023/11/30 07:26:37;;;;;;;;;;;;;;;16.73;45.60;101126.34;4983016;28;1053;-59
2023/11/30 07:29:04;;;;;;;;;;;;;;;16.24;46.85;101135.63;4993017;28;1004;-58
2023/11/30 07:31:30;;;;;;;;;;;;;;;16.26;46.96;101133.47;4976735;28;1020;-58
2023/11/30 07:33:55;;;;;;;;;;;;;;;17.72;43.63;101137.47;4992839;28;1910;-58
2023/11/30 07:36:21;;;;;;;;;;;;;;;16.77;45.51;101131.06;4989976;28;1096;-58
2023/11/30 07:38:46;;;;;;;;;;;;;;;16.29;46.65;101143.09;4996978;28;1113;-58
2023/11/30 07:41:14;;;;;;;;;;;;;;;15.98;47.57;101151.06;4986621;28;1135;-55
2023/11/30 07:43:39;;;;;;;;;;;;;;;17.33;44.57;101154.41;4994245;28;2442;-59
2023/11/30 07:46:05;;;;;;;;;;;;;;;16.99;45.16;101156.75;4999091;28;1110;-58
2023/11/30 07:48:32;;;;;;;;;;;;;;;16.31;46.64;101155.44;4979962;28;1314;-58
2023/11/30 07:50:58;;;;;;;;;;;;;;;17.69;43.60;101165.50;4987235;28;1107;-57
2023/11/30 07:53:23;;;;;;;;;;;;;;;16.75;45.61;101162.63;4986192;28;1963;-56
2023/11/30 07:55:54;;;;;;;;;;;;;;;16.28;46.63;101163.38;4998938;28;1093;-56
2023/11/30 07:58:21;;;;;;;;;;;;;;;15.98;47.37;101162.84;4998762;28;1134;-55
2023/11/30 08:00:47;;;;;;;;;;;;;;;17.22;44.51;101159.06;4998106;28;1001;-56
2023/11/30 08:03:12;;;;;;;;;;;;;;;16.94;45.13;101160.28;4988362;28;868;-54
2023/11/30 08:05:38;;;;;;;;;;;;;;;16.29;46.76;101157.63;4998271;28;1028;-53
2023/11/30 08:08:03;;;;;;;;;;;;;;;15.98;47.41;101154.63;4986480;28;995;-50
2023/11/30 08:10:29;;;;;;;;;;;;;;;17.27;44.42;101163.75;4985132;28;1059;-51
2023/11/30 08:12:54;;;;;;;;;;;;;;;17.20;44.38;101163.97;4993621;28;1918;-54
2023/11/30 08:15:20;;;;;;;;;;;;;;;16.45;46.28;101166.78;4982852;28;1037;-56
2023/11/30 08:17:46;;;;;;;;;;;;;;;16.75;45.73;101171.69;4998534;28;1000;-56
2023/11/30 08:20:13;;;;;;;;;;;;;;;17.33;44.00;101159.91;4998600;28;1036;-56
2023/11/30 08:22:41;;;;;;;;;;;;;;;16.52;46.05;101166.56;4998492;28;1513;-55
2023/11/30 08:25:07;;;;;;;;;;;;;;;16.08;47.16;101168.41;4997444;28;1138;-55
2023/11/30 08:27:33;;;;;;;;;;;;;;;16.90;45.37;101175.63;4989359;28;908;-52
2023/11/30 08:29:59;;;;;;;;;;;;;;;17.38;43.96;101170.91;4985206;28;1127;-52
2023/11/30 08:32:24;;;;;;;;;;;;;;;16.53;46.26;101165.50;4998079;28;945;-53
2023/11/30 08:34:51;;;;;;;;;;;;;;;16.97;45.21;101170.75;4996694;28;1979;-48
2023/11/30 08:37:16;;;;;;;;;;;;;;;17.37;44.07;101169.25;5000711;28;1187;-55
2023/11/30 08:39:42;;;;;;;;;;;;;;;16.61;45.92;101159.50;4994602;28;1172;-52
2023/11/30 08:42:07;;;;;;;;;;;;;;;16.53;46.43;101166.31;4985173;28;1112;-50
2023/11/30 08:44:35;;;;;;;;;;;;;;;17.79;43.26;101176.56;4993766;28;2668;-55
2023/11/30 08:47:01;;;;;;;;;;;;;;;16.75;45.67;101157.94;4996980;28;1051;-56
2023/11/30 08:49:26;;;;;;;;;;;;;;;16.37;46.34;101159.06;4996487;28;1016;-55
2023/11/30 08:51:52;;;;;;;;;;;;;;;16.99;45.38;101156.75;4989272;28;849;-56
2023/11/30 08:54:20;;;;;;;;;;;;;;;17.22;44.23;101155.47;4985139;28;1926;-56
2023/11/30 08:56:47;;;;;;;;;;;;;;;16.51;46.14;101157.53;4989445;28;1044;-54
2023/11/30 08:59:12;;;;;;;;;;;;;;;16.17;47.04;101149.59;4992377;28;1065;-49
2023/11/30 09:01:38;;;;;;;;;;;;;;;17.21;44.68;101149.16;4997361;28;1027;-50
2023/11/30 09:04:04;;;;;;;;;;;;;;;17.41;44.04;101153.88;4994804;28;1207;-48
2023/11/30 09:06:30;;;;;;;;;;;;;;;16.58;46.05;101138.91;5004723;28;1127;-53
2023/11/30 09:08:56;;;;;;;;;;;;;;;16.65;46.04;101140.56;4980074;28;1150;-49
2023/11/30 09:11:21;;;;;;;;;;;;;;;17.55;43.77;101137.69;4989424;28;1179;-49
2023/11/30 09:13:47;;;;;;;;;;;;;;;16.65;46.03;101130.44;4982410;28;1903;-53
2023/11/30 09:16:13;;;;;;;;;;;;;;;16.36;46.79;101129.97;4984098;28;869;-47
2023/11/30 09:18:38;;;;;;;;;;;;;;;16.13;47.00;101118.28;4992822;28;1196;-49
2023/11/30 09:21:04;;;;;;;;;;;;;;;15.90;47.54;101108.47;4988911;28;1221;-54
2023/11/30 09:23:29;;;;;;;;;;;;;;;15.78;47.73;101110.53;4977955;28;1080;-56
2023/11/30 09:25:55;;;;;;;;;;;;;;;16.34;46.57;101107.44;4977529;28;1029;-54
2023/11/30 09:28:21;;;;;;;;;;;;;;;17.47;43.95;101108.00;4980686;28;1001;-56
2023/11/30 09:30:46;;;;;;;;;;;;;;;16.51;46.19;101112.75;4997368;28;1013;-50
2023/11/30 09:33:13;;;;;;;;;;;;;;;16.13;46.90;101106.47;4995425;28;1958;-49
2023/11/30 09:35:38;;;;;;;;;;;;;;;15.89;47.61;101093.09;4986125;28;1103;-51
2023/11/30 09:38:04;;;;;;;;;;;;;;;16.45;46.48;101091.88;4983891;28;1084;-54
2023/11/30 09:40:30;;;;;;;;;;;;;;;17.47;43.79;101090.69;4983635;28;978;-52
2023/11/30 09:42:56;;;;;;;;;;;;;;;16.53;45.86;101072.97;4986374;28;1940;-50
2023/11/30 09:45:22;;;;;;;;;;;;;;;16.19;46.82;101072.50;4988761;28;1132;-48
2023/11/30 09:47:48;;;;;;;;;;;;;;;15.99;47.61;101084.97;4978815;28;1108;-49
2023/11/30 09:50:14;;;;;;;;;;;;;;;16.18;47.04;101090.84;4997198;28;1040;-51
2023/11/30 09:52:40;;;;;;;;;;;;;;;17.54;44.04;101086.56;4983325;28;1980;-47
2023/11/30 09:55:08;;;;;;;;;;;;;;;16.70;45.85;101083.75;4995445;28;1096;-53
2023/11/30 09:57:34;;;;;;;;;;;;;;;16.28;46.82;101070.09;4994496;28;1067;-51
2023/11/30 10:00:00;;;;;;;;;;;;;;;16.21;47.05;101081.28;4985125;28;1044;-51
2023/11/30 10:02:27;;;;;;;;;;;;;;;17.54;43.94;101074.75;4982077;28;1425;-56
2023/11/30 10:04:53;;;;;;;;;;;;;;;16.80;45.75;101079.44;4992354;28;1499;-54
2023/11/30 10:07:18;;;;;;;;;;;;;;;16.34;46.73;101064.38;4983521;28;1140;-51
2023/11/30 10:09:44;;;;;;;;;;;;;;;16.05;47.31;101070.19;4996180;28;1016;-53
2023/11/30 10:12:10;;;;;;;;;;;;;;;15.83;47.80;101066.72;4995417;28;1085;-51
2023/11/30 10:14:35;;;;;;;;;;;;;;;16.36;46.75;101062.16;4984652;28;2682;-51
2023/11/30 10:17:01;;;;;;;;;;;;;;;17.56;44.02;101062.38;4993928;28;922;-54
2023/11/30 10:19:27;;;;;;;;;;;;;;;16.56;46.01;101050.50;4984153;28;1083;-53
2023/11/30 10:21:56;;;;;;;;;;;;;;;16.18;47.24;101065.34;4996370;28;1136;-51
2023/11/30 10:24:23;;;;;;;;;;;;;;;16.00;47.51;101058.38;4988420;28;1202;-51
2023/11/30 10:26:52;;;;;;;;;;;;;;;17.37;44.56;101062.06;4990800;28;1034;-53
2023/11/30 10:29:18;;;;;;;;;;;;;;;16.77;45.71;101061.56;4979282;28;1016;-52
2023/11/30 10:31:43;;;;;;;;;;;;;;;16.29;46.94;101058.84;4978931;28;1017;-55
2023/11/30 10:34:12;;;;;;;;;;;;;;;16.03;47.47;101058.69;4995154;28;1899;-52
2023/11/30 10:36:37;;;;;;;;;;;;;;;16.58;46.42;101059.28;4981452;28;1196;-54
2023/11/30 10:39:22;;;;;;;;;;;;;;;17.35;44.29;101058.78;4987943;28;1090;-50
2023/11/30 10:41:52;;;;;;;;;;;;;;;16.41;46.58;101051.22;4978727;28;1153;-50
2023/11/30 10:44:23;;;;;;;;;;;;;;;16.05;47.46;101045.50;4991134;28;2736;-50
2023/11/30 10:46:49;;;;;;;;;;;;;;;15.86;47.95;101049.75;4977232;28;1114;-50
2023/11/30 10:49:14;;;;;;;;;;;;;;;15.66;48.26;101040.22;4988861;28;1049;-47
2023/11/30 10:51:40;;;;;;;;;;;;;;;16.68;46.01;101049.47;4991346;28;1059;-52
2023/11/30 10:54:30;;;;;;;;;;;;;;;17.23;44.58;101052.69;4994697;28;1910;-51
2023/11/30 10:56:56;;;;;;;;;;;;;;;16.26;46.87;101040.16;4990531;28;1238;-51
2023/11/30 10:59:23;;;;;;;;;;;;;;;15.98;47.75;101041.34;4980970;28;1052;-50
2023/11/30 11:01:51;;;;;;;;;;;;;;;17.22;44.89;101031.78;4985869;28;1037;-50
2023/11/30 11:04:16;;;;;;;;;;;;;;;16.84;45.55;101028.38;4985067;28;1203;-49
2023/11/30 11:06:42;;;;;;;;;;;;;;;16.29;47.05;101020.41;4995809;28;1083;-52
2023/11/30 11:09:08;;;;;;;;;;;;;;;16.04;47.45;101029.31;4996163;28;1069;-51
2023/11/30 11:11:34;;;;;;;;;;;;;;;15.82;47.95;101033.00;4999963;28;1110;-52
2023/11/30 11:14:00;;;;;;;;;;;;;;;16.80;45.76;101022.56;4987206;28;2408;-50
2023/11/30 11:16:41;;;;;;;;;;;;;;;16.99;45.14;101020.19;4997426;28;1052;-52
2023/11/30 11:19:10;;;;;;;;;;;;;;;16.21;47.03;101015.44;4986708;28;1143;-55
2023/11/30 11:21:36;;;;;;;;;;;;;;;15.95;47.82;101017.16;4988288;28;1040;-57
2023/11/30 11:24:05;;;;;;;;;;;;;;;17.09;45.28;101022.16;4993067;28;1004;-58
2023/11/30 11:27:00;;;;;;;;;;;;;;;17.03;45.21;101021.31;4991882;28;1029;-57
2023/11/30 11:29:27;;;;;;;;;;;;;;;16.26;47.10;101023.69;4976662;28;1346;-56
2023/11/30 11:31:53;;;;;;;;;;;;;;;15.98;47.48;101020.22;4995501;28;1016;-57
2023/11/30 11:34:19;;;;;;;;;;;;;;;16.52;46.31;101008.22;4997968;28;1902;-57
2023/11/30 11:36:45;;;;;;;;;;;;;;;17.34;44.40;101015.88;4983578;28;1112;-52
2023/11/30 11:39:10;;;;;;;;;;;;;;;16.40;46.54;101002.91;4979617;28;1124;-54
2023/11/30 11:41:36;;;;;;;;;;;;;;;16.07;47.38;101001.34;4980208;28;1111;-49
2023/11/30 11:44:01;;;;;;;;;;;;;;;15.80;48.10;101004.19;4988776;28;2588;-51
2023/11/30 11:46:27;;;;;;;;;;;;;;;15.66;48.44;100995.56;4983522;28;1147;-54
2023/11/30 11:48:53;;;;;;;;;;;;;;;16.33;47.11;101007.81;4979292;28;1084;-52
2023/11/30 11:51:18;;;;;;;;;;;;;;;17.54;44.05;101006.81;4995115;28;1135;-49
2023/11/30 11:53:44;;;;;;;;;;;;;;;16.73;45.83;101005.53;4992741;28;1942;-52
2023/11/30 11:56:10;;;;;;;;;;;;;;;16.17;47.16;101008.81;4998935;28;1088;-53
2023/11/30 11:58:36;;;;;;;;;;;;;;;15.91;47.66;101005.91;4999320;28;1063;-53
2023/11/30 12:01:02;;;;;;;;;;;;;;;15.69;48.14;100997.78;4983204;28;1179;-54
2023/11/30 12:03:27;;;;;;;;;;;;;;;16.45;46.87;101001.28;4989006;28;1160;-52
2023/11/30 12:05:53;;;;;;;;;;;;;;;17.36;44.09;101013.69;4998797;28;905;-55
2023/11/30 12:08:32;;;;;;;;;;;;;;;16.36;46.60;101001.78;4989917;28;1121;-56
2023/11/30 12:10:58;;;;;;;;;;;;;;;16.01;47.39;101005.97;4991899;28;1096;-52
2023/11/30 12:13:26;;;;;;;;;;;;;;;16.12;47.27;100984.09;4981330;28;2373;-55
2023/11/30 12:15:53;;;;;;;;;;;;;;;17.37;44.38;100976.84;4992288;28;997;-48
2023/11/30 12:18:19;;;;;;;;;;;;;;;16.40;46.48;100989.19;4997211;28;842;-56
2023/11/30 12:20:44;;;;;;;;;;;;;;;16.02;47.58;100991.19;4997524;28;1131;-54
2023/11/30 12:23:12;;;;;;;;;;;;;;;15.78;47.99;100992.63;4988207;28;1032;-51
2023/11/30 12:25:38;;;;;;;;;;;;;;;15.75;48.40;101013.16;4983479;28;1145;-51
2023/11/30 12:28:04;;;;;;;;;;;;;;;17.21;44.77;101010.94;4998164;28;1029;-55
2023/11/30 12:30:29;;;;;;;;;;;;;;;16.74;45.81;100996.19;4991201;28;866;-52
2023/11/30 12:32:55;;;;;;;;;;;;;;;16.19;47.13;101006.66;4978747;28;1976;-57
2023/11/30 12:35:20;;;;;;;;;;;;;;;15.92;48.00;101007.56;4996654;28;1089;-51
2023/11/30 12:37:48;;;;;;;;;;;;;;;16.50;46.81;101009.56;4997861;28;1031;-52
2023/11/30 12:40:14;;;;;;;;;;;;;;;17.43;44.30;100989.50;4993432;28;1052;-51
2023/11/30 12:42:41;;;;;;;;;;;;;;;16.50;46.33;100982.09;4986799;28;1855;-55